Time;durP1;ratioP1;P1;durP2;ratioP2;P2;SDS_P1;SDS_P2;PMS_P1;PMS_P2;Temp;Humidity;BMP_temperature;BMP_pressure;BME280_temperature;BME280_humidity;BME280_pressure;Samples;Min_cycle;Max_cycle;Signal;HPM_P1;HPM_P2
2022/04/07 00:00:20;;;;;;;5.80;3.05;;;11.00;82.40;;;;;;9185066;19;20018;-64
2022/04/07 00:03:25;;;;;;;5.82;3.60;;;11.00;82.50;;;;;;9185004;19;20015;-64
2022/04/07 00:06:30;;;;;;;6.88;3.45;;;11.00;82.40;;;;;;9186699;19;20018;-64
2022/04/07 00:09:35;;;;;;;6.68;3.15;;;11.00;82.40;;;;;;9183278;19;20018;-64
2022/04/07 00:12:41;;;;;;;6.95;3.30;;;10.90;82.40;;;;;;9184529;19;20700;-64
2022/04/07 00:15:49;;;;;;;4.75;3.30;;;10.90;82.40;;;;;;9185649;19;20549;-64
2022/04/07 00:18:54;;;;;;;5.68;3.20;;;11.00;82.40;;;;;;9186932;19;20341;-64
2022/04/07 00:21:59;;;;;;;5.43;2.70;;;10.90;82.40;;;;;;9186530;19;20014;-64
2022/04/07 00:25:05;;;;;;;6.63;2.92;;;10.90;82.40;;;;;;9186238;19;20015;-64
2022/04/07 00:28:10;;;;;;;7.10;3.25;;;10.90;82.40;;;;;;9185268;19;20023;-65
2022/04/07 00:31:18;;;;;;;5.65;2.58;;;10.90;82.40;;;;;;9185246;19;20082;-65
2022/04/07 00:34:23;;;;;;;6.00;2.83;;;10.90;82.40;;;;;;9186851;19;20042;-65
2022/04/07 00:37:28;;;;;;;7.22;3.38;;;10.90;82.40;;;;;;9183972;19;20839;-64
2022/04/07 00:40:33;;;;;;;5.68;2.80;;;10.90;82.40;;;;;;9184408;19;20015;-64
2022/04/07 00:43:38;;;;;;;8.85;3.47;;;10.90;82.40;;;;;;9184925;19;20356;-64
2022/04/07 00:46:46;;;;;;;4.85;2.72;;;10.90;82.40;;;;;;9184970;19;20038;-63
2022/04/07 00:49:52;;;;;;;4.53;3.00;;;10.90;82.50;;;;;;9183137;19;20023;-65
2022/04/07 00:53:02;;;;;;;6.38;2.58;;;10.90;82.40;;;;;;9181715;19;20003;-64
2022/04/07 00:56:10;;;;;;;4.20;2.65;;;10.90;82.50;;;;;;9185582;19;20019;-64
2022/04/07 00:59:18;;;;;;;7.05;3.15;;;10.90;82.50;;;;;;9185889;19;20017;-64
2022/04/07 01:02:26;;;;;;;7.45;2.92;;;10.90;82.50;;;;;;9180535;19;20015;-63
2022/04/07 01:05:31;;;;;;;4.45;2.70;;;10.90;82.50;;;;;;9185237;19;20106;-65
2022/04/07 01:08:36;;;;;;;5.85;2.85;;;10.90;82.50;;;;;;9183997;19;20023;-64
2022/04/07 01:11:42;;;;;;;5.07;2.90;;;10.80;82.50;;;;;;9184864;19;20017;-64
2022/04/07 01:14:56;;;;;;;4.95;2.72;;;10.80;82.50;;;;;;9183203;19;20025;-64
2022/04/07 01:18:03;;;;;;;4.70;2.45;;;10.80;82.60;;;;;;9183814;19;20014;-64
2022/04/07 01:21:11;;;;;;;4.53;2.90;;;10.80;82.60;;;;;;9183319;19;20015;-63
2022/04/07 01:24:18;;;;;;;9.18;3.10;;;10.80;82.60;;;;;;9181942;19;20013;-63
2022/04/07 01:27:27;;;;;;;4.68;2.60;;;10.80;82.60;;;;;;9181064;19;20047;-63
2022/04/07 01:30:32;;;;;;;3.40;2.40;;;10.80;82.70;;;;;;9183387;19;20015;-64
2022/04/07 01:33:37;;;;;;;5.20;2.38;;;10.80;82.70;;;;;;9182452;19;20015;-64
2022/04/07 01:36:44;;;;;;;2.60;2.38;;;10.80;82.70;;;;;;9181758;19;20486;-64
2022/04/07 01:39:53;;;;;;;5.78;2.75;;;10.80;82.70;;;;;;9182898;19;20037;-65
2022/04/07 01:43:04;;;;;;;5.78;2.22;;;10.80;82.70;;;;;;9180653;19;20014;-64
2022/04/07 01:46:10;;;;;;;4.95;2.53;;;10.80;82.70;;;;;;9182947;19;20021;-64
2022/04/07 01:49:15;;;;;;;6.05;2.55;;;10.80;82.70;;;;;;9183899;19;20022;-64
2022/04/07 01:52:21;;;;;;;2.55;1.88;;;10.80;82.70;;;;;;9179788;19;20029;-65
2022/04/07 01:55:27;;;;;;;10.13;2.38;;;10.80;82.70;;;;;;9181614;19;20442;-65
2022/04/07 01:58:36;;;;;;;5.55;2.47;;;10.80;82.80;;;;;;9181086;19;20022;-64
2022/04/07 02:01:41;;;;;;;5.25;2.15;;;10.80;82.70;;;;;;9183237;19;20033;-64
2022/04/07 02:04:55;;;;;;;5.15;2.30;;;10.80;82.70;;;;;;9179926;19;20500;-65
2022/04/07 02:08:00;;;;;;;4.88;1.85;;;10.80;82.70;;;;;;9180267;19;20475;-65
2022/04/07 02:11:04;;;;;;;6.13;2.13;;;10.80;82.60;;;;;;9182734;19;20014;-64
2022/04/07 02:14:12;;;;;;;7.97;1.52;;;10.80;82.60;;;;;;9180637;19;20015;-64
2022/04/07 02:17:20;;;;;;;5.82;1.50;;;10.80;82.60;;;;;;9181648;19;20015;-64
2022/04/07 02:20:26;;;;;;;5.53;1.63;;;10.70;82.60;;;;;;9181185;19;20011;-64
2022/04/07 02:23:34;;;;;;;3.80;1.63;;;10.80;82.60;;;;;;9180856;19;20011;-64
2022/04/07 02:26:39;;;;;;;8.23;1.48;;;10.70;82.60;;;;;;9180951;19;20015;-64
2022/04/07 02:29:46;;;;;;;7.25;1.80;;;10.70;82.60;;;;;;9186154;19;20010;-65
2022/04/07 02:32:51;;;;;;;6.75;1.45;;;10.70;82.60;;;;;;9190709;19;20492;-65
2022/04/07 02:35:56;;;;;;;8.05;1.83;;;10.70;82.60;;;;;;9191007;19;20018;-64
2022/04/07 02:39:01;;;;;;;8.23;1.50;;;10.60;82.60;;;;;;9191863;19;20018;-65
2022/04/07 02:42:10;;;;;;;3.83;1.25;;;10.60;82.60;;;;;;9190273;19;20486;-65
2022/04/07 02:45:18;;;;;;;5.70;1.58;;;10.60;82.70;;;;;;9186308;19;20015;-65
2022/04/07 02:48:23;;;;;;;2.58;1.25;;;10.60;82.70;;;;;;9189733;19;20018;-64
2022/04/07 02:51:28;;;;;;;4.50;1.20;;;10.60;82.70;;;;;;9187171;19;20112;-64
2022/04/07 02:54:33;;;;;;;8.30;1.83;;;10.50;82.70;;;;;;9190734;19;20018;-64
2022/04/07 02:57:38;;;;;;;7.25;1.42;;;10.50;82.70;;;;;;9190586;19;20018;-65
2022/04/07 03:00:45;;;;;;;5.68;1.73;;;10.50;82.70;;;;;;9185581;19;20018;-65
2022/04/07 03:03:52;;;;;;;10.45;2.35;;;10.50;82.80;;;;;;9188752;19;20103;-64
2022/04/07 03:06:57;;;;;;;9.32;1.52;;;10.50;82.80;;;;;;9188031;19;20019;-65
2022/04/07 03:10:02;;;;;;;9.30;2.78;;;10.50;82.80;;;;;;9189949;19;20380;-65
2022/04/07 03:13:07;;;;;;;5.07;1.80;;;10.50;82.80;;;;;;9189806;19;20743;-64
2022/04/07 03:16:15;;;;;;;7.72;2.17;;;10.40;82.80;;;;;;9188156;19;20014;-64
2022/04/07 03:19:20;;;;;;;5.30;1.40;;;10.40;82.80;;;;;;9189461;19;20014;-64
2022/04/07 03:22:25;;;;;;;4.25;1.48;;;10.40;82.90;;;;;;9188894;19;20007;-65
2022/04/07 03:25:30;;;;;;;9.23;1.95;;;10.40;82.90;;;;;;9184338;19;20441;-64
2022/04/07 03:28:36;;;;;;;7.75;1.60;;;10.40;82.90;;;;;;9188845;19;20011;-64
2022/04/07 03:31:44;;;;;;;5.07;2.00;;;10.40;82.90;;;;;;9187568;19;20021;-65
2022/04/07 03:34:49;;;;;;;7.22;2.08;;;10.40;82.90;;;;;;9188948;19;20047;-64
2022/04/07 03:37:54;;;;;;;6.85;1.50;;;10.40;82.90;;;;;;9189901;19;20019;-64
2022/04/07 03:40:59;;;;;;;4.72;1.70;;;10.40;82.90;;;;;;9187580;19;20021;-65
2022/04/07 03:44:07;;;;;;;6.28;1.88;;;10.40;82.90;;;;;;9187859;19;20017;-65
2022/04/07 03:47:15;;;;;;;10.20;2.33;;;10.40;82.90;;;;;;9186877;19;20078;-65
2022/04/07 03:50:20;;;;;;;8.77;2.47;;;10.40;83.00;;;;;;9186375;19;20022;-64
2022/04/07 03:53:25;;;;;;;9.73;2.03;;;10.30;82.90;;;;;;9185020;19;20025;-64
2022/04/07 03:56:30;;;;;;;9.45;1.90;;;10.40;82.90;;;;;;9185421;19;20021;-64
2022/04/07 03:59:38;;;;;;;11.98;2.38;;;10.30;82.90;;;;;;9186071;19;20011;-64
2022/04/07 04:02:45;;;;;;;13.68;2.17;;;10.30;82.90;;;;;;9187770;19;20006;-64
2022/04/07 04:05:51;;;;;;;10.13;2.42;;;10.30;83.00;;;;;;9184107;19;20376;-64
2022/04/07 04:08:56;;;;;;;16.17;2.58;;;10.30;82.90;;;;;;9183538;19;20017;-64
2022/04/07 04:12:01;;;;;;;10.05;1.98;;;10.30;82.90;;;;;;9186254;19;20011;-64
2022/04/07 04:15:07;;;;;;;18.77;3.05;;;10.30;83.00;;;;;;9186757;19;20018;-65
2022/04/07 04:18:15;;;;;;;18.55;2.85;;;10.30;83.00;;;;;;9186982;19;20703;-65
2022/04/07 04:21:20;;;;;;;16.38;2.88;;;10.30;82.90;;;;;;9187707;19;20020;-64
2022/04/07 04:24:25;;;;;;;16.33;2.50;;;10.30;83.00;;;;;;9186032;19;20017;-64
2022/04/07 04:27:35;;;;;;;17.25;2.60;;;10.30;82.90;;;;;;9185454;19;20097;-64
2022/04/07 04:30:39;;;;;;;20.02;3.42;;;10.30;83.00;;;;;;9184553;19;20014;-65
2022/04/07 04:33:47;;;;;;;10.60;2.47;;;10.30;82.90;;;;;;9185486;19;20030;-64
2022/04/07 04:36:52;;;;;;;12.73;3.00;;;10.30;82.90;;;;;;9186225;19;20018;-64
2022/04/07 04:39:57;;;;;;;15.23;3.17;;;10.40;82.90;;;;;;9186256;19;20078;-65
2022/04/07 04:43:02;;;;;;;15.65;2.47;;;10.40;82.90;;;;;;9184380;19;20027;-64
2022/04/07 04:46:07;;;;;;;10.05;2.00;;;10.40;82.80;;;;;;9183180;19;20014;-65
2022/04/07 04:49:15;;;;;;;14.95;3.38;;;10.40;82.90;;;;;;9184793;19;20022;-63
2022/04/07 04:52:20;;;;;;;6.50;1.90;;;10.40;82.80;;;;;;9176452;19;20051;-63
2022/04/07 04:55:25;;;;;;;8.88;2.08;;;10.40;82.80;;;;;;9183232;19;20112;-64
2022/04/07 04:58:32;;;;;;;6.45;2.28;;;10.40;82.80;;;;;;9183949;19;20017;-64
2022/04/07 05:01:37;;;;;;;11.13;2.03;;;10.40;82.80;;;;;;9185646;19;20021;-65
2022/04/07 05:04:44;;;;;;;14.57;2.38;;;10.40;82.80;;;;;;9185126;19;20018;-65
2022/04/07 05:07:49;;;;;;;11.25;2.83;;;10.40;82.90;;;;;;9181927;19;20014;-64
2022/04/07 05:10:54;;;;;;;10.35;2.45;;;10.40;83.40;;;;;;9184148;19;20026;-64
2022/04/07 05:13:59;;;;;;;9.98;3.30;;;10.40;82.80;;;;;;9183315;19;20371;-65
2022/04/07 05:17:04;;;;;;;11.70;2.30;;;10.40;82.80;;;;;;9183994;19;20014;-65
2022/04/07 05:20:13;;;;;;;12.23;2.10;;;10.40;82.90;;;;;;9185441;19;20021;-64
2022/04/07 05:23:18;;;;;;;8.15;2.42;;;10.40;82.90;;;;;;9182628;19;20015;-64
2022/04/07 05:26:23;;;;;;;11.23;2.35;;;10.40;82.80;;;;;;9180815;19;20098;-64
2022/04/07 05:29:28;;;;;;;14.65;2.60;;;10.40;82.80;;;;;;9183178;19;20103;-64
2022/04/07 05:32:34;;;;;;;14.57;2.92;;;10.40;82.80;;;;;;9183897;19;20010;-64
2022/04/07 05:35:42;;;;;;;9.60;2.15;;;10.40;82.80;;;;;;9182193;19;20010;-65
2022/04/07 05:38:47;;;;;;;13.18;2.08;;;10.40;82.80;;;;;;9182943;19;20022;-64
2022/04/07 05:41:52;;;;;;;5.63;1.70;;;10.40;82.90;;;;;;9182053;19;20015;-63
2022/04/07 05:44:57;;;;;;;17.83;2.70;;;10.40;82.80;;;;;;9180096;19;20390;-64
2022/04/07 05:48:02;;;;;;;12.38;1.98;;;10.40;82.80;;;;;;9182316;19;20025;-63
2022/04/07 05:51:11;;;;;;;13.38;1.88;;;10.40;82.80;;;;;;9178731;19;20014;-64
2022/04/07 05:54:17;;;;;;;5.32;1.48;;;10.40;82.80;;;;;;9182465;19;20356;-64
2022/04/07 05:57:24;;;;;;;7.68;1.48;;;10.40;82.80;;;;;;9181860;19;20478;-64
2022/04/07 06:00:29;;;;;;;12.45;1.77;;;10.40;82.80;;;;;;9181243;19;20011;-65
2022/04/07 06:03:36;;;;;;;11.50;1.88;;;10.40;82.80;;;;;;9180686;19;20483;-65
2022/04/07 06:06:43;;;;;;;13.02;2.78;;;10.40;82.70;;;;;;9179737;19;20025;-64
2022/04/07 06:09:48;;;;;;;9.05;1.55;;;10.40;82.70;;;;;;9181018;19;20074;-64
2022/04/07 06:12:53;;;;;;;5.65;1.60;;;10.40;82.70;;;;;;9179492;19;20029;-64
2022/04/07 06:15:58;;;;;;;6.72;1.67;;;10.50;82.70;;;;;;9174288;19;20140;-64
2022/04/07 06:19:03;;;;;;;14.55;1.80;;;10.50;82.70;;;;;;9175393;19;20023;-64
2022/04/07 06:22:12;;;;;;;6.72;1.70;;;10.50;82.70;;;;;;9174331;19;20352;-64
2022/04/07 06:25:17;;;;;;;11.43;2.17;;;10.50;82.70;;;;;;9173201;19;20018;-64
2022/04/07 06:28:22;;;;;;;6.90;1.90;;;10.50;82.70;;;;;;9173908;19;20018;-64
2022/04/07 06:31:27;;;;;;;7.45;1.65;;;10.50;82.70;;;;;;9177324;19;20014;-64
2022/04/07 06:34:36;;;;;;;5.82;1.48;;;10.50;82.70;;;;;;9179147;19;20174;-64
2022/04/07 06:37:53;;;;;;;7.10;1.83;;;10.50;82.80;;;;;;9181971;19;20014;-64
2022/04/07 06:40:58;;;;;;;4.65;1.65;;;10.50;82.90;;;;;;9179566;19;20018;-65
2022/04/07 06:44:03;;;;;;;5.38;1.77;;;10.40;82.80;;;;;;9181169;19;20010;-64
2022/04/07 06:47:08;;;;;;;5.68;1.65;;;10.40;82.80;;;;;;9179452;19;20015;-64
2022/04/07 06:50:14;;;;;;;5.78;1.40;;;10.40;82.90;;;;;;9179928;19;20077;-64
2022/04/07 06:53:22;;;;;;;6.20;1.60;;;10.50;83.00;;;;;;9171396;19;20022;-64
2022/04/07 06:56:27;;;;;;;1.13;0.50;;;10.40;83.10;;;;;;9180377;19;20463;-64
2022/04/07 06:59:32;;;;;;;1.13;0.30;;;10.40;83.00;;;;;;9181114;19;20022;-64
2022/04/07 07:02:37;;;;;;;2.85;1.20;;;10.40;82.60;;;;;;9180413;19;20015;-65
2022/04/07 07:05:42;;;;;;;2.42;0.68;;;10.30;82.00;;;;;;9180399;19;20018;-64
2022/04/07 07:08:50;;;;;;;1.50;0.55;;;10.20;81.50;;;;;;9178555;19;20019;-63
2022/04/07 07:11:55;;;;;;;2.63;0.68;;;10.00;81.10;;;;;;9177892;19;20018;-64
2022/04/07 07:15:00;;;;;;;0.95;0.52;;;9.80;80.90;;;;;;9174342;19;20378;-64
2022/04/07 07:18:05;;;;;;;3.25;0.77;;;9.50;80.70;;;;;;9185962;19;20010;-64
2022/04/07 07:21:10;;;;;;;1.95;0.80;;;9.40;80.80;;;;;;9188499;19;20371;-64
2022/04/07 07:24:18;;;;;;;4.45;1.00;;;9.20;80.80;;;;;;9186559;19;20010;-64
2022/04/07 07:27:23;;;;;;;1.25;0.73;;;9.00;80.90;;;;;;9183800;19;20030;-63
2022/04/07 07:30:28;;;;;;;6.30;1.20;;;8.80;81.00;;;;;;9184329;19;20030;-63
2022/04/07 07:33:35;;;;;;;4.93;0.82;;;8.70;81.00;;;;;;9186899;19;20486;-64
2022/04/07 07:36:40;;;;;;;2.70;0.50;;;8.60;81.20;;;;;;9183635;19;20022;-63
2022/04/07 07:39:48;;;;;;;2.33;1.08;;;8.50;81.30;;;;;;9185804;19;20477;-64
2022/04/07 07:42:56;;;;;;;0.82;0.52;;;8.30;81.40;;;;;;9184202;19;20015;-63
2022/04/07 07:46:01;;;;;;;2.03;0.73;;;8.20;81.40;;;;;;9181463;19;20019;-64
2022/04/07 07:49:08;;;;;;;3.90;0.90;;;8.20;81.60;;;;;;9167533;19;20019;-63
2022/04/07 07:52:13;;;;;;;2.17;0.80;;;8.10;81.70;;;;;;9167237;19;20030;-65
2022/04/07 07:55:21;;;;;;;3.45;1.00;;;8.00;81.80;;;;;;9172124;19;20025;-63
2022/04/07 07:58:26;;;;;;;2.78;0.82;;;8.00;81.90;;;;;;9179906;19;20014;-63
2022/04/07 08:01:31;;;;;;;3.58;0.82;;;8.00;81.90;;;;;;9182686;19;20014;-63
2022/04/07 08:04:36;;;;;;;7.72;0.93;;;7.90;81.90;;;;;;9185048;19;20078;-63
2022/04/07 08:07:45;;;;;;;2.90;0.82;;;7.90;82.00;;;;;;9179840;19;20021;-63
2022/04/07 08:10:52;;;;;;;2.92;1.05;;;7.90;82.10;;;;;;9184987;19;20014;-63
2022/04/07 08:13:57;;;;;;;3.97;0.70;;;7.80;82.10;;;;;;9184647;19;20022;-63
2022/04/07 08:17:02;;;;;;;1.02;0.52;;;7.80;82.10;;;;;;9185528;19;20041;-63
2022/04/07 08:20:13;;;;;;;1.17;0.57;;;7.80;82.10;;;;;;9184989;19;20110;-64
2022/04/07 08:23:18;;;;;;;2.50;1.00;;;7.80;82.20;;;;;;9187177;19;20018;-65
2022/04/07 08:26:25;;;;;;;1.15;0.70;;;7.80;82.20;;;;;;9185259;19;20657;-63
2022/04/07 08:29:31;;;;;;;6.28;1.40;;;7.70;82.10;;;;;;9185100;19;20010;-64
2022/04/07 08:32:36;;;;;;;1.67;0.50;;;7.70;82.20;;;;;;9184818;19;20026;-65
2022/04/07 08:35:41;;;;;;;0.98;0.45;;;7.70;82.10;;;;;;9183621;19;20010;-63
2022/04/07 08:38:46;;;;;;;4.15;0.95;;;7.60;82.10;;;;;;9181403;19;20056;-63
2022/04/07 08:41:55;;;;;;;3.35;1.08;;;7.50;82.10;;;;;;9185379;19;20010;-63
2022/04/07 08:45:00;;;;;;;5.57;0.68;;;7.50;82.20;;;;;;9181242;19;20018;-64
2022/04/07 08:48:08;;;;;;;6.22;1.38;;;7.50;82.30;;;;;;9178659;19;20014;-65
2022/04/07 08:51:14;;;;;;;6.60;0.68;;;7.50;82.40;;;;;;9176649;19;20021;-63
2022/04/07 08:54:19;;;;;;;1.92;0.77;;;7.50;82.40;;;;;;9185588;19;20017;-63
2022/04/07 08:57:29;;;;;;;5.55;0.70;;;7.50;82.40;;;;;;9183426;19;20010;-63
2022/04/07 09:00:35;;;;;;;4.53;0.60;;;7.50;82.50;;;;;;9183429;19;20014;-63
2022/04/07 09:03:40;;;;;;;0.98;0.40;;;7.50;82.50;;;;;;9176854;19;20011;-63
2022/04/07 09:06:45;;;;;;;4.78;0.88;;;7.50;82.50;;;;;;9180128;19;20478;-67
2022/04/07 09:10:00;;;;;;;7.18;0.75;;;7.50;82.60;;;;;;9179686;19;20018;-64
2022/04/07 09:13:08;;;;;;;2.55;1.10;;;7.50;82.70;;;;;;9179235;19;20010;-63
2022/04/07 09:16:15;;;;;;;2.83;0.45;;;7.60;82.80;;;;;;9184858;19;20014;-65
2022/04/07 09:19:23;;;;;;;1.25;0.55;;;7.60;82.90;;;;;;9182716;19;20006;-62
2022/04/07 09:22:33;;;;;;;3.10;0.60;;;7.70;83.10;;;;;;9183160;19;20017;-63
2022/04/07 09:25:43;;;;;;;1.20;0.75;;;7.70;83.30;;;;;;9183674;19;20368;-63
2022/04/07 09:28:51;;;;;;;2.83;0.80;;;7.80;83.40;;;;;;9180683;19;20015;-62
2022/04/07 09:31:56;;;;;;;5.10;1.05;;;8.00;84.50;;;;;;9182004;19;20022;-63
2022/04/07 09:35:02;;;;;;;8.23;1.08;;;8.10;84.10;;;;;;9181463;19;20019;-63
2022/04/07 09:38:07;;;;;;;3.35;0.90;;;8.40;84.30;;;;;;9178416;19;20014;-64
2022/04/07 09:41:14;;;;;;;3.22;0.90;;;8.60;84.50;;;;;;9181473;19;20018;-64
2022/04/07 09:44:26;;;;;;;5.00;1.63;;;8.90;84.80;;;;;;9175707;19;20014;-64
2022/04/07 09:47:38;;;;;;;6.60;1.35;;;9.20;85.00;;;;;;9177420;19;20020;-64
2022/04/07 09:50:43;;;;;;;5.47;1.13;;;9.40;85.00;;;;;;9177086;19;20018;-65
2022/04/07 09:53:50;;;;;;;6.78;1.25;;;9.70;84.80;;;;;;9177461;19;20025;-66
2022/04/07 09:57:01;;;;;;;4.22;0.70;;;10.00;84.60;;;;;;9177772;19;20360;-63
2022/04/07 10:00:10;;;;;;;5.95;1.10;;;10.20;84.40;;;;;;9175810;19;20018;-65
2022/04/07 10:03:16;;;;;;;7.07;1.00;;;10.40;84.00;;;;;;9180221;19;20011;-64
2022/04/07 10:06:22;;;;;;;6.75;0.98;;;10.60;83.70;;;;;;9181646;19;20021;-63
2022/04/07 10:09:30;;;;;;;8.40;1.40;;;10.70;83.30;;;;;;9179371;19;20034;-64
2022/04/07 10:12:36;;;;;;;6.43;1.98;;;10.80;83.00;;;;;;9182856;19;20019;-64
2022/04/07 10:15:44;;;;;;;14.88;1.50;;;10.90;82.90;;;;;;9181454;19;20486;-64
2022/04/07 10:18:57;;;;;;;3.85;0.95;;;11.00;82.80;;;;;;9182551;19;20015;-64
2022/04/07 10:22:14;;;;;;;5.10;1.02;;;11.20;82.80;;;;;;9182454;19;20030;-65
2022/04/07 10:25:20;;;;;;;9.65;1.83;;;11.30;82.80;;;;;;9181107;19;20021;-64
2022/04/07 10:28:27;;;;;;;8.07;1.17;;;11.40;82.70;;;;;;9179079;19;20033;-65
2022/04/07 10:31:41;;;;;;;5.53;1.40;;;11.50;82.50;;;;;;9180123;19;20018;-65
2022/04/07 10:34:57;;;;;;;8.80;1.35;;;11.70;82.50;;;;;;9180278;19;20457;-64
2022/04/07 10:38:03;;;;;;;9.35;1.50;;;11.80;82.40;;;;;;9179884;19;20011;-63
2022/04/07 10:41:08;;;;;;;7.43;1.50;;;12.00;82.30;;;;;;9181276;19;20614;-64
2022/04/07 10:44:14;;;;;;;6.78;1.30;;;12.10;82.10;;;;;;9180947;19;20025;-64
2022/04/07 10:47:29;;;;;;;8.90;1.30;;;12.20;81.80;;;;;;9180139;19;20015;-65
2022/04/07 10:50:34;;;;;;;8.80;1.35;;;12.40;81.40;;;;;;9183282;19;20018;-65
2022/04/07 10:53:41;;;;;;;7.75;1.25;;;12.40;81.20;;;;;;9185848;19;20015;-65
2022/04/07 10:56:49;;;;;;;6.15;0.90;;;12.50;81.10;;;;;;9187590;19;20452;-66
2022/04/07 10:59:55;;;;;;;6.38;1.35;;;12.50;80.80;;;;;;9189444;19;20395;-65
2022/04/07 11:03:20;;;;;;;9.20;1.45;;;12.60;80.80;;;;;;9183195;19;20010;-65
2022/04/07 11:06:25;;;;;;;8.73;1.30;;;12.70;80.70;;;;;;9181006;19;20035;-66
2022/04/07 11:09:43;;;;;;;12.70;1.33;;;12.80;80.90;;;;;;9179718;19;20018;-64
2022/04/07 11:13:04;;;;;;;8.82;1.58;;;12.90;80.80;;;;;;9183315;19;20033;-65
2022/04/07 11:16:18;;;;;;;8.40;1.60;;;13.10;80.70;;;;;;9180993;19;20029;-67
2022/04/07 11:19:43;;;;;;;7.63;1.80;;;13.20;80.50;;;;;;9183066;19;20011;-64
2022/04/07 11:22:54;;;;;;;11.80;1.40;;;13.40;80.10;;;;;;9188150;19;20011;-65
2022/04/07 11:26:12;;;;;;;10.80;1.55;;;13.50;80.00;;;;;;9187711;19;20080;-65
2022/04/07 11:29:34;;;;;;;8.80;1.90;;;13.60;79.40;;;;;;9185821;19;20018;-66
2022/04/07 11:32:41;;;;;;;10.63;1.63;;;13.70;79.00;;;;;;9189290;19;20011;-65
2022/04/07 11:36:23;;;;;;;12.57;1.70;;;13.80;79.20;;;;;;9186693;19;20026;-65
2022/04/07 11:39:29;;;;;;;8.38;1.60;;;13.90;78.40;;;;;;9189130;19;20011;-65
2022/04/07 11:42:34;;;;;;;10.63;1.95;;;13.90;78.60;;;;;;9185545;19;20021;-65
2022/04/07 11:45:39;;;;;;;7.72;1.50;;;13.90;78.20;;;;;;9186517;19;20384;-65
2022/04/07 11:48:44;;;;;;;5.78;1.30;;;14.00;77.90;;;;;;9184360;19;20014;-65
2022/04/07 11:51:52;;;;;;;8.73;1.50;;;13.90;77.50;;;;;;9184732;19;20653;-65
2022/04/07 11:54:58;;;;;;;4.38;1.48;;;13.80;77.20;;;;;;9185634;19;20019;-64
2022/04/07 11:58:03;;;;;;;8.20;1.55;;;13.70;77.10;;;;;;9176717;19;20002;-66
2022/04/07 12:01:15;;;;;;;6.97;1.85;;;13.50;77.10;;;;;;9175639;19;20010;-65
2022/04/07 12:04:20;;;;;;;6.13;1.90;;;13.40;77.10;;;;;;9179537;19;20638;-65
2022/04/07 12:07:28;;;;;;;8.13;1.83;;;13.20;77.30;;;;;;9177296;19;20467;-66
2022/04/07 12:10:34;;;;;;;13.45;2.03;;;13.10;77.40;;;;;;9176886;19;20010;-65
2022/04/07 12:13:39;;;;;;;14.10;2.22;;;13.00;77.50;;;;;;9177892;19;20018;-65
2022/04/07 12:16:48;;;;;;;12.05;2.17;;;13.00;77.70;;;;;;9179727;19;20098;-65
2022/04/07 12:19:55;;;;;;;8.63;1.63;;;12.90;77.60;;;;;;9181451;19;20384;-65
2022/04/07 12:23:10;;;;;;;15.98;2.40;;;12.80;77.70;;;;;;9176201;19;20048;-66
2022/04/07 12:26:15;;;;;;;8.48;1.88;;;12.80;77.40;;;;;;9178305;19;20609;-66
2022/04/07 12:29:22;;;;;;;10.10;1.90;;;12.80;77.60;;;;;;9176528;19;20380;-65
2022/04/07 12:32:27;;;;;;;13.35;2.85;;;12.80;77.50;;;;;;9177573;19;20026;-65
2022/04/07 12:35:46;;;;;;;15.07;3.20;;;12.70;77.40;;;;;;9179526;19;20022;-65
2022/04/07 12:39:05;;;;;;;10.43;2.20;;;12.70;76.90;;;;;;9177323;19;20051;-65
2022/04/07 12:42:11;;;;;;;12.38;2.25;;;12.70;76.90;;;;;;9177268;19;20371;-65
2022/04/07 12:45:15;;;;;;;8.45;2.25;;;12.70;77.20;;;;;;9176277;19;20017;-66
2022/04/07 12:48:23;;;;;;;7.47;1.77;;;12.70;77.20;;;;;;9171882;19;20041;-65
2022/04/07 12:51:34;;;;;;;8.38;1.90;;;12.60;77.00;;;;;;9165245;19;20022;-66
2022/04/07 12:54:57;;;;;;;15.23;2.42;;;12.60;76.90;;;;;;9161691;19;20026;-66
2022/04/07 12:58:03;;;;;;;12.32;2.25;;;12.70;76.60;;;;;;9165447;19;20025;-66
2022/04/07 13:01:08;;;;;;;11.93;2.13;;;12.70;76.90;;;;;;9173479;19;20044;-65
2022/04/07 13:04:14;;;;;;;20.67;4.22;;;12.60;76.70;;;;;;9179924;19;20462;-65
2022/04/07 13:07:19;;;;;;;15.25;2.40;;;12.70;76.60;;;;;;9172901;19;20034;-65
2022/04/07 13:10:29;;;;;;;13.77;2.13;;;12.60;76.30;;;;;;9172074;19;20034;-66
2022/04/07 13:13:34;;;;;;;19.60;2.90;;;12.70;76.20;;;;;;9169926;19;20026;-65
2022/04/07 13:16:40;;;;;;;11.15;2.08;;;12.60;76.10;;;;;;9172965;19;20024;-66
2022/04/07 13:19:46;;;;;;;15.40;2.03;;;12.60;75.90;;;;;;9175798;19;20371;-65
2022/04/07 13:22:51;;;;;;;22.40;2.78;;;12.60;75.80;;;;;;9171331;19;20478;-65
2022/04/07 13:25:59;;;;;;;7.47;1.60;;;12.50;75.60;;;;;;9176233;19;20024;-66
2022/04/07 13:29:04;;;;;;;19.58;2.40;;;12.50;75.60;;;;;;9172705;19;20676;-65
2022/04/07 13:32:09;;;;;;;12.43;2.15;;;12.50;75.70;;;;;;9175688;19;20026;-65
2022/04/07 13:35:14;;;;;;;12.02;2.20;;;12.50;75.60;;;;;;9169443;19;20019;-65
2022/04/07 13:38:19;;;;;;;10.95;2.03;;;12.50;75.50;;;;;;9170404;19;20025;-65
2022/04/07 13:41:27;;;;;;;17.35;2.50;;;12.40;75.40;;;;;;9175059;19;20033;-64
2022/04/07 13:44:32;;;;;;;12.75;2.05;;;12.40;75.30;;;;;;9171893;19;20452;-65
2022/04/07 13:47:37;;;;;;;10.38;2.17;;;12.40;75.40;;;;;;9171911;19;20359;-66
2022/04/07 13:50:43;;;;;;;11.20;2.17;;;12.40;75.30;;;;;;9164292;19;20021;-65
2022/04/07 13:53:48;;;;;;;11.57;2.15;;;12.40;75.20;;;;;;9174968;19;20026;-65
2022/04/07 13:56:56;;;;;;;22.92;3.17;;;12.40;75.20;;;;;;9175812;19;20023;-65
2022/04/07 14:00:01;;;;;;;14.90;2.28;;;12.50;75.00;;;;;;9170355;19;20763;-64
2022/04/07 14:03:15;;;;;;;13.05;2.10;;;12.50;75.00;;;;;;9165284;19;20616;-65
2022/04/07 14:06:20;;;;;;;8.68;2.05;;;12.50;74.80;;;;;;9164920;19;20055;-66
2022/04/07 14:09:25;;;;;;;8.82;1.90;;;12.50;74.60;;;;;;9159101;19;20014;-65
2022/04/07 14:12:33;;;;;;;9.95;2.10;;;12.50;74.50;;;;;;9160873;19;20025;-65
2022/04/07 14:15:38;;;;;;;12.75;2.00;;;12.50;74.30;;;;;;9163663;19;20022;-66
2022/04/07 14:18:43;;;;;;;13.43;2.42;;;12.50;74.40;;;;;;9156664;19;20022;-64
2022/04/07 14:21:48;;;;;;;12.73;2.20;;;12.60;74.30;;;;;;9174732;19;20019;-63
2022/04/07 14:24:54;;;;;;;11.20;1.77;;;12.60;74.20;;;;;;9178698;19;20025;-65
2022/04/07 14:28:01;;;;;;;15.13;2.22;;;12.60;74.00;;;;;;9185962;19;20629;-65
2022/04/07 14:31:07;;;;;;;13.20;2.00;;;12.70;73.80;;;;;;9184016;19;20015;-64
2022/04/07 14:34:12;;;;;;;7.70;2.75;;;12.70;73.80;;;;;;9181361;19;20022;-65
2022/04/07 14:37:18;;;;;;;15.23;2.55;;;12.70;73.80;;;;;;9184291;19;20018;-64
2022/04/07 14:40:24;;;;;;;13.98;2.13;;;12.60;73.80;;;;;;9177600;19;20025;-64
2022/04/07 14:43:31;;;;;;;11.63;1.77;;;12.60;73.90;;;;;;9182555;19;20094;-65
2022/04/07 14:46:36;;;;;;;13.63;2.22;;;12.60;73.80;;;;;;9183226;19;20011;-65
2022/04/07 14:49:42;;;;;;;20.02;2.35;;;12.50;73.70;;;;;;9182916;19;20090;-65
2022/04/07 14:52:49;;;;;;;18.38;2.42;;;12.50;73.60;;;;;;9179930;19;20015;-64
2022/04/07 14:55:55;;;;;;;17.30;2.05;;;12.50;73.70;;;;;;9184813;19;20479;-64
2022/04/07 14:59:06;;;;;;;12.15;2.58;;;12.40;74.20;;;;;;9182974;19;20593;-65
2022/04/07 15:02:12;;;;;;;13.07;2.35;;;12.40;73.70;;;;;;9181818;19;20018;-64
2022/04/07 15:05:17;;;;;;;12.88;2.10;;;12.30;73.70;;;;;;9182937;19;20014;-64
2022/04/07 15:08:22;;;;;;;15.40;2.25;;;12.20;73.60;;;;;;9181850;19;20019;-64
2022/04/07 15:11:27;;;;;;;12.07;1.70;;;12.20;73.60;;;;;;9182684;19;20022;-64
2022/04/07 15:14:39;;;;;;;11.93;2.40;;;12.10;73.60;;;;;;9184212;19;20482;-64
2022/04/07 15:17:44;;;;;;;9.05;2.38;;;12.10;73.60;;;;;;9184621;19;20022;-64
2022/04/07 15:20:49;;;;;;;14.80;2.92;;;12.00;73.60;;;;;;9182462;19;20018;-64
2022/04/07 15:23:54;;;;;;;5.40;1.05;;;11.90;73.60;;;;;;9181679;19;20017;-65
2022/04/07 15:26:59;;;;;;;1.25;0.60;;;11.90;73.50;;;;;;9186234;19;20019;-64
2022/04/07 15:30:10;;;;;;;3.10;1.05;;;11.80;73.50;;;;;;9178833;19;20033;-64
2022/04/07 15:33:15;;;;;;;4.47;0.82;;;11.60;73.50;;;;;;9188030;19;20021;-64
2022/04/07 15:36:20;;;;;;;2.58;0.75;;;11.50;73.60;;;;;;9178662;19;20014;-64
2022/04/07 15:39:25;;;;;;;3.17;0.60;;;11.40;73.70;;;;;;9174753;19;20058;-63
2022/04/07 15:42:30;;;;;;;3.25;0.88;;;11.30;73.90;;;;;;9180450;19;20026;-64
2022/04/07 15:45:38;;;;;;;3.63;0.90;;;11.20;74.10;;;;;;9178768;19;20014;-65
2022/04/07 15:48:43;;;;;;;5.70;1.77;;;11.00;74.20;;;;;;9181466;19;20014;-64
2022/04/07 15:51:48;;;;;;;6.25;1.40;;;11.00;74.40;;;;;;9182397;19;20014;-67
2022/04/07 15:54:53;;;;;;;7.13;1.33;;;10.90;74.40;;;;;;9187440;19;20014;-64
2022/04/07 15:57:58;;;;;;;7.55;1.73;;;10.90;74.60;;;;;;9184030;19;20020;-64
2022/04/07 16:01:06;;;;;;;8.90;3.50;;;10.80;74.60;;;;;;9183917;19;20044;-64
2022/04/07 16:04:11;;;;;;;11.00;1.38;;;10.80;74.60;;;;;;9184096;19;20841;-64
2022/04/07 16:07:16;;;;;;;7.35;1.27;;;10.80;74.70;;;;;;9182289;19;20018;-65
2022/04/07 16:10:21;;;;;;;6.13;1.20;;;10.80;74.70;;;;;;9183311;19;20014;-64